PWSweather.com
Personal Weather Stations
Station Observations
ISINALOA5
Olimpica, MazatlanMX 82150

OlimpicaMazatlanMX 82150

Lat: 23.23678, Lon: -106.414653

Elevation: 30

Station Type: Davis Vantage Pro 2

Latest ConditionsUpdated 10:51:46 PM MDT Thursday, Apr 26, 2018
Currently Today's Max Today's Min Today's Average
Temperature 76.7°F24.8°C 86.5°F30.3°C 69.6°F20.9°C 78.1°F25.6°C
Dew Point 68.7°F20.4°C 74.7°F23.7°C 54.6°F12.6°C 64.2°F17.9°C
Winds 1.5 mph WSW2.4 kmh WSW 9.2 mph SW14.8 kmh SW - 2.6 mph 4.2 kmh
Wind Gusts 3.0 mph4.8 kmh 14.0 mph22.5 kmh - -
Humidity 76% 85% 43% 63%
Pressure 29.88 in1011.9 mb 29.91 in1012.9 mb 29.81 in1009.5 mb -
Hour Temp Dew Point Humidity Winds Wind Gusts Pressure Precip Precip Rate Daily Precip Total
10:51 PM 76.7°F24.8°C 68.7°F20.4°C 76% 1.5 mph WSW2.4 kmh WSW 3.0 mph4.8 kmh 29.88 in1011.9 mb 0.00 in0.0 mm 0.00 in0.0 mm 0.00 in0.0 mm
10:46 PM 76.7°F24.8°C 68.6°F20.3°C 76% 1.5 mph WSW2.4 kmh WSW 3.0 mph4.8 kmh 29.88 in1011.9 mb 0.00 in0.0 mm 0.00 in0.0 mm 0.00 in0.0 mm
10:41 PM 76.9°F24.9°C 68.9°F20.5°C 76% 1.6 mph WSW2.6 kmh WSW 3.0 mph4.8 kmh 29.88 in1011.9 mb 0.00 in0.0 mm 0.00 in0.0 mm 0.00 in0.0 mm
10:36 PM 77.0°F25.0°C 69.0°F20.6°C 76% 1.9 mph WSW3.1 kmh WSW 3.0 mph4.8 kmh 29.88 in1011.9 mb 0.00 in0.0 mm 0.00 in0.0 mm 0.00 in0.0 mm
10:31 PM 77.2°F25.1°C 69.0°F20.6°C 76% 1.9 mph WSW3.1 kmh WSW 3.0 mph4.8 kmh 29.88 in1011.9 mb 0.00 in0.0 mm 0.00 in0.0 mm 0.00 in0.0 mm
10:26 PM 77.3°F25.2°C 69.3°F20.7°C 76% 2.1 mph WSW3.4 kmh WSW 3.0 mph4.8 kmh 29.88 in1011.9 mb 0.00 in0.0 mm 0.00 in0.0 mm 0.00 in0.0 mm
10:21 PM 77.3°F25.2°C 69.3°F20.7°C 76% 1.0 mph WSW1.6 kmh WSW 3.0 mph4.8 kmh 29.87 in1011.5 mb 0.00 in0.0 mm 0.00 in0.0 mm 0.00 in0.0 mm
10:16 PM 77.2°F25.1°C 69.0°F20.6°C 76% 1.5 mph SW2.4 kmh SW 3.0 mph4.8 kmh 29.87 in1011.5 mb 0.00 in0.0 mm 0.00 in0.0 mm 0.00 in0.0 mm
10:11 PM 77.1°F25.1°C 68.9°F20.5°C 76% 1.4 mph SW2.3 kmh SW 3.0 mph4.8 kmh 29.87 in1011.5 mb 0.00 in0.0 mm 0.00 in0.0 mm 0.00 in0.0 mm
10:06 PM 77.2°F25.1°C 69.0°F20.6°C 76% Calm Calm 3.0 mph4.8 kmh 29.87 in1011.5 mb 0.00 in0.0 mm 0.00 in0.0 mm 0.00 in0.0 mm
10:01 PM 77.2°F25.1°C 69.2°F20.7°C 76% 1.0 mph SW1.6 kmh SW 3.0 mph4.8 kmh 29.87 in1011.5 mb 0.00 in0.0 mm 0.00 in0.0 mm 0.00 in0.0 mm
09:56 PM 77.2°F25.1°C 69.2°F20.7°C 76% 1.7 mph SW2.7 kmh SW 3.0 mph4.8 kmh 29.87 in1011.5 mb 0.00 in0.0 mm 0.00 in0.0 mm 0.00 in0.0 mm
09:51 PM 77.2°F25.1°C 68.8°F20.4°C 75% 1.2 mph SW1.9 kmh SW 3.0 mph4.8 kmh 29.87 in1011.5 mb 0.00 in0.0 mm 0.00 in0.0 mm 0.00 in0.0 mm
09:46 PM 77.3°F25.2°C 69.1°F20.6°C 76% 1.7 mph SW2.7 kmh SW 3.0 mph4.8 kmh 29.87 in1011.5 mb 0.00 in0.0 mm 0.00 in0.0 mm 0.00 in0.0 mm
09:41 PM 77.2°F25.1°C 69.2°F20.7°C 76% 1.5 mph SW2.4 kmh SW 3.0 mph4.8 kmh 29.86 in1011.2 mb 0.00 in0.0 mm 0.00 in0.0 mm 0.00 in0.0 mm
09:36 PM 77.2°F25.1°C 68.8°F20.4°C 75% 1.3 mph SW2.1 kmh SW 3.0 mph4.8 kmh 29.86 in1011.2 mb 0.00 in0.0 mm 0.00 in0.0 mm 0.00 in0.0 mm
09:31 PM 77.1°F25.1°C 69.1°F20.6°C 76% 2.2 mph SW3.5 kmh SW 3.0 mph4.8 kmh 29.86 in1011.2 mb 0.00 in0.0 mm 0.00 in0.0 mm 0.00 in0.0 mm
09:26 PM 77.1°F25.1°C 69.5°F20.8°C 77% 1.3 mph SW2.1 kmh SW 3.0 mph4.8 kmh 29.86 in1011.2 mb 0.00 in0.0 mm 0.00 in0.0 mm 0.00 in0.0 mm
09:21 PM 77.1°F25.1°C 69.8°F21.0°C 78% 1.7 mph SW2.7 kmh SW 3.0 mph4.8 kmh 29.86 in1011.2 mb 0.00 in0.0 mm 0.00 in0.0 mm 0.00 in0.0 mm
09:16 PM 77.2°F25.1°C 69.9°F21.1°C 78% 1.2 mph SW1.9 kmh SW 3.0 mph4.8 kmh 29.86 in1011.2 mb 0.00 in0.0 mm 0.00 in0.0 mm 0.00 in0.0 mm
09:11 PM 77.2°F25.1°C 70.3°F21.3°C 79% 1.3 mph SW2.1 kmh SW 3.0 mph4.8 kmh 29.85 in1010.8 mb 0.00 in0.0 mm 0.00 in0.0 mm 0.00 in0.0 mm
09:06 PM 77.2°F25.1°C 69.8°F21.0°C 78% 1.0 mph SW1.6 kmh SW 3.0 mph4.8 kmh 29.85 in1010.8 mb 0.00 in0.0 mm 0.00 in0.0 mm 0.00 in0.0 mm
09:01 PM 77.2°F25.1°C 70.2°F21.2°C 79% 1.7 mph SW2.7 kmh SW 3.0 mph4.8 kmh 29.85 in1010.8 mb 0.00 in0.0 mm 0.00 in0.0 mm 0.00 in0.0 mm
08:56 PM 77.2°F25.1°C 70.3°F21.3°C 79% 1.9 mph SW3.1 kmh SW 3.0 mph4.8 kmh 29.85 in1010.8 mb 0.00 in0.0 mm 0.00 in0.0 mm 0.00 in0.0 mm
08:51 PM 77.1°F25.1°C 70.6°F21.4°C 80% 1.7 mph SW2.7 kmh SW 3.0 mph4.8 kmh 29.85 in1010.8 mb 0.00 in0.0 mm 0.00 in0.0 mm 0.00 in0.0 mm
08:46 PM 77.2°F25.1°C 70.7°F21.5°C 80% 1.3 mph SW2.1 kmh SW 4.0 mph6.4 kmh 29.85 in1010.8 mb 0.00 in0.0 mm 0.00 in0.0 mm 0.00 in0.0 mm
08:41 PM 77.2°F25.1°C 71.0°F21.7°C 81% 2.3 mph SW3.7 kmh SW 4.0 mph6.4 kmh 29.85 in1010.8 mb 0.00 in0.0 mm 0.00 in0.0 mm 0.00 in0.0 mm
08:36 PM 77.1°F25.1°C 70.5°F21.4°C 80% 2.0 mph SW3.2 kmh SW 4.0 mph6.4 kmh 29.84 in1010.5 mb 0.00 in0.0 mm 0.00 in0.0 mm 0.00 in0.0 mm
08:31 PM 77.0°F25.0°C 70.5°F21.4°C 80% 2.4 mph SW3.9 kmh SW 4.0 mph6.4 kmh 29.84 in1010.5 mb 0.00 in0.0 mm 0.00 in0.0 mm 0.00 in0.0 mm
08:26 PM 77.0°F25.0°C 71.2°F21.8°C 82% 2.1 mph SW3.4 kmh SW 5.0 mph8.0 kmh 29.84 in1010.5 mb 0.00 in0.0 mm 0.00 in0.0 mm 0.00 in0.0 mm
08:21 PM 77.0°F25.0°C 71.2°F21.8°C 82% 1.8 mph SW2.9 kmh SW 5.0 mph8.0 kmh 29.84 in1010.5 mb 0.00 in0.0 mm 0.00 in0.0 mm 0.00 in0.0 mm
08:16 PM 77.0°F25.0°C 71.8°F22.1°C 84% 1.8 mph SW2.9 kmh SW 6.0 mph9.7 kmh 29.84 in1010.5 mb 0.00 in0.0 mm 0.00 in0.0 mm 0.00 in0.0 mm
08:11 PM 77.1°F25.1°C 71.9°F22.2°C 84% 2.9 mph SW4.7 kmh SW 6.0 mph9.7 kmh 29.84 in1010.5 mb 0.00 in0.0 mm 0.00 in0.0 mm 0.00 in0.0 mm
08:06 PM 77.1°F25.1°C 72.2°F22.3°C 85% 3.3 mph WSW5.3 kmh WSW 6.0 mph9.7 kmh 29.84 in1010.5 mb 0.00 in0.0 mm 0.00 in0.0 mm 0.00 in0.0 mm
08:01 PM 77.3°F25.2°C 72.5°F22.5°C 85% 3.1 mph SW5.0 kmh SW 6.0 mph9.7 kmh 29.84 in1010.5 mb 0.00 in0.0 mm 0.00 in0.0 mm 0.00 in0.0 mm
07:56 PM 77.4°F25.2°C 72.2°F22.3°C 84% 3.6 mph WSW5.8 kmh WSW 7.0 mph11.3 kmh 29.84 in1010.5 mb 0.00 in0.0 mm 0.00 in0.0 mm 0.00 in0.0 mm
07:51 PM 77.6°F25.3°C 72.1°F22.3°C 83% 4.0 mph SW6.4 kmh SW 7.0 mph11.3 kmh 29.84 in1010.5 mb 0.00 in0.0 mm 0.00 in0.0 mm 0.00 in0.0 mm
07:46 PM 77.8°F25.4°C 71.9°F22.2°C 82% 2.5 mph SW4.0 kmh SW 7.0 mph11.3 kmh 29.83 in1010.2 mb 0.00 in0.0 mm 0.00 in0.0 mm 0.00 in0.0 mm
07:41 PM 78.0°F25.6°C 71.8°F22.1°C 81% 3.2 mph SW5.1 kmh SW 7.0 mph11.3 kmh 29.83 in1010.2 mb 0.00 in0.0 mm 0.00 in0.0 mm 0.00 in0.0 mm
07:36 PM 78.2°F25.7°C 71.6°F22.0°C 80% 2.4 mph SW3.9 kmh SW 7.0 mph11.3 kmh 29.83 in1010.2 mb 0.00 in0.0 mm 0.00 in0.0 mm 0.00 in0.0 mm
07:31 PM 78.7°F25.9°C 71.8°F22.1°C 79% 4.5 mph SW7.2 kmh SW 7.0 mph11.3 kmh 29.83 in1010.2 mb 0.00 in0.0 mm 0.00 in0.0 mm 0.00 in0.0 mm
07:26 PM 79.3°F26.3°C 71.2°F21.8°C 76% 4.6 mph SW7.4 kmh SW 7.0 mph11.3 kmh 29.83 in1010.2 mb 0.00 in0.0 mm 0.00 in0.0 mm 0.00 in0.0 mm
07:21 PM 79.8°F26.6°C 70.6°F21.4°C 73% 3.3 mph WSW5.3 kmh WSW 5.0 mph8.0 kmh 29.83 in1010.2 mb 0.00 in0.0 mm 0.00 in0.0 mm 0.00 in0.0 mm
07:16 PM 80.2°F26.8°C 69.8°F21.0°C 70% 3.0 mph SW4.8 kmh SW 7.0 mph11.3 kmh 29.83 in1010.2 mb 0.00 in0.0 mm 0.00 in0.0 mm 0.00 in0.0 mm
07:11 PM 80.4°F26.9°C 69.1°F20.6°C 68% 2.6 mph SW4.2 kmh SW 7.0 mph11.3 kmh 29.83 in1010.2 mb 0.00 in0.0 mm 0.00 in0.0 mm 0.00 in0.0 mm
07:06 PM 80.6°F27.0°C 68.4°F20.2°C 66% 2.1 mph WSW3.4 kmh WSW 7.0 mph11.3 kmh 29.83 in1010.2 mb 0.00 in0.0 mm 0.00 in0.0 mm 0.00 in0.0 mm
07:01 PM 80.8°F27.1°C 65.9°F18.8°C 60% 3.4 mph WSW5.5 kmh WSW 7.0 mph11.3 kmh 29.83 in1010.2 mb 0.00 in0.0 mm 0.00 in0.0 mm 0.00 in0.0 mm
06:56 PM 81.3°F27.4°C 65.8°F18.8°C 59% 4.0 mph WSW6.4 kmh WSW 6.0 mph9.7 kmh 29.83 in1010.2 mb 0.00 in0.0 mm 0.00 in0.0 mm 0.00 in0.0 mm
06:51 PM 81.6°F27.6°C 66.1°F18.9°C 59% 3.5 mph WSW5.6 kmh WSW 6.0 mph9.7 kmh 29.83 in1010.2 mb 0.00 in0.0 mm 0.00 in0.0 mm 0.00 in0.0 mm
06:46 PM 81.7°F27.6°C 65.7°F18.7°C 58% 3.7 mph SW6.0 kmh SW 7.0 mph11.3 kmh 29.82 in1009.8 mb 0.00 in0.0 mm 0.00 in0.0 mm 0.00 in0.0 mm
06:41 PM 81.3°F27.4°C 65.3°F18.5°C 58% 2.8 mph WSW4.5 kmh WSW 7.0 mph11.3 kmh 29.83 in1010.2 mb 0.00 in0.0 mm 0.00 in0.0 mm 0.00 in0.0 mm
06:36 PM 81.5°F27.5°C 67.0°F19.4°C 61% 4.5 mph SW7.2 kmh SW 7.0 mph11.3 kmh 29.82 in1009.8 mb 0.00 in0.0 mm 0.00 in0.0 mm 0.00 in0.0 mm
06:30 PM 81.6°F27.6°C 67.1°F19.5°C 61% 3.9 mph SW6.3 kmh SW 8.0 mph12.9 kmh 29.82 in1009.8 mb 0.00 in0.0 mm 0.00 in0.0 mm 0.00 in0.0 mm
06:26 PM 81.6°F27.6°C 68.0°F20.0°C 63% 3.6 mph SW5.8 kmh SW 8.0 mph12.9 kmh 29.82 in1009.8 mb 0.00 in0.0 mm 0.00 in0.0 mm 0.00 in0.0 mm
06:21 PM 81.6°F27.6°C 67.1°F19.5°C 61% 4.6 mph SW7.4 kmh SW 8.0 mph12.9 kmh 29.82 in1009.8 mb 0.00 in0.0 mm 0.00 in0.0 mm 0.00 in0.0 mm
06:16 PM 82.1°F27.8°C 66.1°F18.9°C 58% 5.3 mph SW8.5 kmh SW 8.0 mph12.9 kmh 29.82 in1009.8 mb 0.00 in0.0 mm 0.00 in0.0 mm 0.00 in0.0 mm
06:11 PM 82.6°F28.1°C 64.3°F17.9°C 54% 3.7 mph SW6.0 kmh SW 7.0 mph11.3 kmh 29.82 in1009.8 mb 0.00 in0.0 mm 0.00 in0.0 mm 0.00 in0.0 mm
06:06 PM 82.6°F28.1°C 64.8°F18.2°C 55% 4.0 mph SW6.4 kmh SW 7.0 mph11.3 kmh 29.82 in1009.8 mb 0.00 in0.0 mm 0.00 in0.0 mm 0.00 in0.0 mm
06:01 PM 82.5°F28.1°C 63.8°F17.7°C 53% 4.0 mph SW6.4 kmh SW 8.0 mph12.9 kmh 29.82 in1009.8 mb 0.00 in0.0 mm 0.00 in0.0 mm 0.00 in0.0 mm
05:56 PM 82.6°F28.1°C 62.2°F16.8°C 50% 4.9 mph SW7.9 kmh SW 8.0 mph12.9 kmh 29.82 in1009.8 mb 0.00 in0.0 mm 0.00 in0.0 mm 0.00 in0.0 mm
05:51 PM 82.7°F28.2°C 66.1°F18.9°C 57% 3.5 mph WSW5.6 kmh WSW 9.0 mph14.5 kmh 29.82 in1009.8 mb 0.00 in0.0 mm 0.00 in0.0 mm 0.00 in0.0 mm
05:45 PM 82.9°F28.3°C 65.1°F18.4°C 55% 4.5 mph WSW7.2 kmh WSW 9.0 mph14.5 kmh 29.82 in1009.8 mb 0.00 in0.0 mm 0.00 in0.0 mm 0.00 in0.0 mm
05:41 PM 82.8°F28.2°C 66.2°F19.0°C 57% 2.2 mph SSW3.5 kmh SSW 9.0 mph14.5 kmh 29.82 in1009.8 mb 0.00 in0.0 mm 0.00 in0.0 mm 0.00 in0.0 mm
05:35 PM 82.3°F27.9°C 67.3°F19.6°C 60% 4.0 mph WSW6.4 kmh WSW 9.0 mph14.5 kmh 29.82 in1009.8 mb 0.00 in0.0 mm 0.00 in0.0 mm 0.00 in0.0 mm
05:30 PM 82.4°F28.0°C 68.3°F20.2°C 62% 4.2 mph SW6.8 kmh SW 9.0 mph14.5 kmh 29.82 in1009.8 mb 0.00 in0.0 mm 0.00 in0.0 mm 0.00 in0.0 mm
05:25 PM 82.6°F28.1°C 67.1°F19.5°C 59% 4.9 mph WSW7.9 kmh WSW 11.0 mph17.7 kmh 29.81 in1009.5 mb 0.00 in0.0 mm 0.00 in0.0 mm 0.00 in0.0 mm
05:20 PM 82.3°F27.9°C 66.3°F19.1°C 58% 4.8 mph SW7.7 kmh SW 11.0 mph17.7 kmh 29.82 in1009.8 mb 0.00 in0.0 mm 0.00 in0.0 mm 0.00 in0.0 mm
05:15 PM 81.5°F27.5°C 69.3°F20.7°C 66% 4.2 mph SW6.8 kmh SW 11.0 mph17.7 kmh 29.82 in1009.8 mb 0.00 in0.0 mm 0.00 in0.0 mm 0.00 in0.0 mm
05:10 PM 81.2°F27.3°C 70.3°F21.3°C 69% 7.1 mph SW11.4 kmh SW 12.0 mph19.3 kmh 29.82 in1009.8 mb 0.00 in0.0 mm 0.00 in0.0 mm 0.00 in0.0 mm
05:05 PM 81.6°F27.6°C 71.3°F21.8°C 71% 6.0 mph WSW9.7 kmh WSW 12.0 mph19.3 kmh 29.82 in1009.8 mb 0.00 in0.0 mm 0.00 in0.0 mm 0.00 in0.0 mm
05:00 PM 81.7°F27.6°C 71.8°F22.1°C 72% 4.6 mph SW7.4 kmh SW 12.0 mph19.3 kmh 29.82 in1009.8 mb 0.00 in0.0 mm 0.00 in0.0 mm 0.00 in0.0 mm
04:55 PM 81.6°F27.6°C 71.1°F21.7°C 70% 6.3 mph SW10.1 kmh SW 12.0 mph19.3 kmh 29.82 in1009.8 mb 0.00 in0.0 mm 0.00 in0.0 mm 0.00 in0.0 mm
04:50 PM 81.2°F27.3°C 71.3°F21.8°C 72% 6.5 mph SW10.5 kmh SW 10.0 mph16.1 kmh 29.82 in1009.8 mb 0.00 in0.0 mm 0.00 in0.0 mm 0.00 in0.0 mm
04:45 PM 81.3°F27.4°C 72.6°F22.6°C 75% 6.0 mph WSW9.7 kmh WSW 13.0 mph20.9 kmh 29.82 in1009.8 mb 0.00 in0.0 mm 0.00 in0.0 mm 0.00 in0.0 mm
04:40 PM 81.8°F27.7°C 73.3°F22.9°C 75% 6.9 mph WSW11.1 kmh WSW 13.0 mph20.9 kmh 29.82 in1009.8 mb 0.00 in0.0 mm 0.00 in0.0 mm 0.00 in0.0 mm
04:35 PM 82.2°F27.9°C 72.9°F22.7°C 73% 5.2 mph WSW8.4 kmh WSW 13.0 mph20.9 kmh 29.82 in1009.8 mb 0.00 in0.0 mm 0.00 in0.0 mm 0.00 in0.0 mm
04:30 PM 82.2°F27.9°C 71.4°F21.9°C 70% 6.2 mph SSW10.0 kmh SSW 13.0 mph20.9 kmh 29.82 in1009.8 mb 0.00 in0.0 mm 0.00 in0.0 mm 0.00 in0.0 mm
04:25 PM 82.7°F28.2°C 71.9°F22.2°C 70% 6.8 mph SW10.9 kmh SW 10.0 mph16.1 kmh 29.83 in1010.2 mb 0.00 in0.0 mm 0.00 in0.0 mm 0.00 in0.0 mm
04:20 PM 82.7°F28.2°C 72.6°F22.6°C 71% 4.3 mph SSW6.9 kmh SSW 10.0 mph16.1 kmh 29.83 in1010.2 mb 0.00 in0.0 mm 0.00 in0.0 mm 0.00 in0.0 mm
04:15 PM 82.4°F28.0°C 71.9°F22.2°C 70% 5.5 mph SSW8.9 kmh SSW 10.0 mph16.1 kmh 29.83 in1010.2 mb 0.00 in0.0 mm 0.00 in0.0 mm 0.00 in0.0 mm
04:10 PM 83.0°F28.3°C 72.9°F22.7°C 71% 5.9 mph SW9.5 kmh SW 11.0 mph17.7 kmh 29.83 in1010.2 mb 0.00 in0.0 mm 0.00 in0.0 mm 0.00 in0.0 mm
04:05 PM 83.0°F28.3°C 72.9°F22.7°C 71% 5.3 mph SW8.5 kmh SW 11.0 mph17.7 kmh 29.83 in1010.2 mb 0.00 in0.0 mm 0.00 in0.0 mm 0.00 in0.0 mm
04:00 PM 82.5°F28.1°C 74.0°F23.3°C 75% 3.8 mph SSW6.1 kmh SSW 11.0 mph17.7 kmh 29.83 in1010.2 mb 0.00 in0.0 mm 0.00 in0.0 mm 0.00 in0.0 mm
03:55 PM 82.1°F27.8°C 73.6°F23.1°C 75% 7.0 mph SSW11.3 kmh SSW 11.0 mph17.7 kmh 29.83 in1010.2 mb 0.00 in0.0 mm 0.00 in0.0 mm 0.00 in0.0 mm
03:50 PM 82.0°F27.8°C 73.9°F23.3°C 76% 4.7 mph SW7.6 kmh SW 12.0 mph19.3 kmh 29.83 in1010.2 mb 0.00 in0.0 mm 0.00 in0.0 mm 0.00 in0.0 mm
03:45 PM 82.1°F27.8°C 74.0°F23.3°C 76% 6.4 mph SW10.3 kmh SW 13.0 mph20.9 kmh 29.83 in1010.2 mb 0.00 in0.0 mm 0.00 in0.0 mm 0.00 in0.0 mm
03:40 PM 81.8°F27.7°C 73.5°F23.1°C 76% 5.6 mph SW9.0 kmh SW 13.0 mph20.9 kmh 29.83 in1010.2 mb 0.00 in0.0 mm 0.00 in0.0 mm 0.00 in0.0 mm
03:35 PM 80.8°F27.1°C 71.5°F21.9°C 73% 7.3 mph SW11.7 kmh SW 13.0 mph20.9 kmh 29.83 in1010.2 mb 0.00 in0.0 mm 0.00 in0.0 mm 0.00 in0.0 mm
03:30 PM 81.5°F27.5°C 73.4°F23.0°C 76% 9.2 mph SW14.8 kmh SW 13.0 mph20.9 kmh 29.83 in1010.2 mb 0.00 in0.0 mm 0.00 in0.0 mm 0.00 in0.0 mm
03:25 PM 82.4°F28.0°C 73.9°F23.3°C 75% 8.5 mph SW13.7 kmh SW 13.0 mph20.9 kmh 29.83 in1010.2 mb 0.00 in0.0 mm 0.00 in0.0 mm 0.00 in0.0 mm
03:20 PM 82.9°F28.3°C 74.7°F23.7°C 76% 3.5 mph SW5.6 kmh SW 13.0 mph20.9 kmh 29.83 in1010.2 mb 0.00 in0.0 mm 0.00 in0.0 mm 0.00 in0.0 mm
03:15 PM 83.0°F28.3°C 73.0°F22.8°C 72% 7.2 mph SW11.6 kmh SW 13.0 mph20.9 kmh 29.83 in1010.2 mb 0.00 in0.0 mm 0.00 in0.0 mm 0.00 in0.0 mm
03:10 PM 83.5°F28.6°C 69.8°F21.0°C 63% 6.4 mph SW10.3 kmh SW 11.0 mph17.7 kmh 29.83 in1010.2 mb 0.00 in0.0 mm 0.00 in0.0 mm 0.00 in0.0 mm
03:05 PM 83.5°F28.6°C 69.4°F20.8°C 62% 4.4 mph SW7.1 kmh SW 12.0 mph19.3 kmh 29.83 in1010.2 mb 0.00 in0.0 mm 0.00 in0.0 mm 0.00 in0.0 mm
03:00 PM 83.2°F28.4°C 69.1°F20.6°C 62% 5.0 mph SW8.0 kmh SW 14.0 mph22.5 kmh 29.84 in1010.5 mb 0.00 in0.0 mm 0.00 in0.0 mm 0.00 in0.0 mm
02:55 PM 83.1°F28.4°C 70.8°F21.6°C 66% 4.9 mph SW7.9 kmh SW 14.0 mph22.5 kmh 29.84 in1010.5 mb 0.00 in0.0 mm 0.00 in0.0 mm 0.00 in0.0 mm
02:50 PM 83.5°F28.6°C 68.4°F20.2°C 60% 7.2 mph SW11.6 kmh SW 14.0 mph22.5 kmh 29.84 in1010.5 mb 0.00 in0.0 mm 0.00 in0.0 mm 0.00 in0.0 mm
02:45 PM 83.7°F28.7°C 70.2°F21.2°C 64% 7.1 mph SW11.4 kmh SW 14.0 mph22.5 kmh 29.84 in1010.5 mb 0.00 in0.0 mm 0.00 in0.0 mm 0.00 in0.0 mm
02:40 PM 83.8°F28.8°C 68.9°F20.5°C 61% 3.2 mph SSW5.1 kmh SSW 10.0 mph16.1 kmh 29.84 in1010.5 mb 0.00 in0.0 mm 0.00 in0.0 mm 0.00 in0.0 mm
02:35 PM 83.9°F28.8°C 71.6°F22.0°C 66% 5.0 mph SW8.0 kmh SW 9.0 mph14.5 kmh 29.84 in1010.5 mb 0.00 in0.0 mm 0.00 in0.0 mm 0.00 in0.0 mm
02:30 PM 83.7°F28.7°C 69.6°F20.9°C 62% 4.2 mph SW6.8 kmh SW 9.0 mph14.5 kmh 29.84 in1010.5 mb 0.00 in0.0 mm 0.00 in0.0 mm 0.00 in0.0 mm
02:25 PM 83.8°F28.8°C 72.4°F22.4°C 68% 5.0 mph SW8.0 kmh SW 11.0 mph17.7 kmh 29.85 in1010.8 mb 0.00 in0.0 mm 0.00 in0.0 mm 0.00 in0.0 mm
02:20 PM 84.0°F28.9°C 70.8°F21.6°C 64% 3.5 mph SW5.6 kmh SW 11.0 mph17.7 kmh 29.85 in1010.8 mb 0.00 in0.0 mm 0.00 in0.0 mm 0.00 in0.0 mm
02:15 PM 84.3°F29.1°C 69.7°F20.9°C 61% 3.2 mph S5.1 kmh S 11.0 mph17.7 kmh 29.85 in1010.8 mb 0.00 in0.0 mm 0.00 in0.0 mm 0.00 in0.0 mm
02:10 PM 84.5°F29.2°C 69.4°F20.8°C 60% 5.3 mph SW8.5 kmh SW 12.0 mph19.3 kmh 29.85 in1010.8 mb 0.00 in0.0 mm 0.00 in0.0 mm 0.00 in0.0 mm
02:05 PM 84.6°F29.2°C 68.4°F20.2°C 58% 3.9 mph SSW6.3 kmh SSW 12.0 mph19.3 kmh 29.85 in1010.8 mb 0.00 in0.0 mm 0.00 in0.0 mm 0.00 in0.0 mm
02:00 PM 84.7°F29.3°C 65.3°F18.5°C 52% 3.9 mph SSW6.3 kmh SSW 12.0 mph19.3 kmh 29.85 in1010.8 mb 0.00 in0.0 mm 0.00 in0.0 mm 0.00 in0.0 mm
01:55 PM 84.7°F29.3°C 63.6°F17.6°C 49% 5.3 mph SSW8.5 kmh SSW 12.0 mph19.3 kmh 29.85 in1010.8 mb 0.00 in0.0 mm 0.00 in0.0 mm 0.00 in0.0 mm
01:50 PM 84.7°F29.3°C 61.7°F16.5°C 46% 5.1 mph SSW8.2 kmh SSW 11.0 mph17.7 kmh 29.86 in1011.2 mb 0.00 in0.0 mm 0.00 in0.0 mm 0.00 in0.0 mm
01:45 PM 84.9°F29.4°C 65.5°F18.6°C 52% 5.8 mph SW9.3 kmh SW 11.0 mph17.7 kmh 29.86 in1011.2 mb 0.00 in0.0 mm 0.00 in0.0 mm 0.00 in0.0 mm
01:40 PM 85.3°F29.6°C 65.3°F18.5°C 51% 7.8 mph SW12.6 kmh SW 11.0 mph17.7 kmh 29.86 in1011.2 mb 0.00 in0.0 mm 0.00 in0.0 mm 0.00 in0.0 mm
01:35 PM 85.8°F29.9°C 65.2°F18.4°C 50% 3.5 mph SW5.6 kmh SW 9.0 mph14.5 kmh 29.86 in1011.2 mb 0.00 in0.0 mm 0.00 in0.0 mm 0.00 in0.0 mm
01:30 PM 85.5°F29.7°C 60.5°F15.8°C 43% 2.9 mph SSW4.7 kmh SSW 9.0 mph14.5 kmh 29.86 in1011.2 mb 0.00 in0.0 mm 0.00 in0.0 mm 0.00 in0.0 mm
01:25 PM 85.0°F29.4°C 62.6°F17.0°C 47% 5.3 mph SW8.5 kmh SW 10.0 mph16.1 kmh 29.86 in1011.2 mb 0.00 in0.0 mm 0.00 in0.0 mm 0.00 in0.0 mm
01:20 PM 84.2°F29.0°C 61.9°F16.6°C 47% 2.9 mph SW4.7 kmh SW 12.0 mph19.3 kmh 29.86 in1011.2 mb 0.00 in0.0 mm 0.00 in0.0 mm 0.00 in0.0 mm
01:15 PM 83.8°F28.8°C 66.7°F19.3°C 56% 4.8 mph SW7.7 kmh SW 12.0 mph19.3 kmh 29.87 in1011.5 mb 0.00 in0.0 mm 0.00 in0.0 mm 0.00 in0.0 mm
01:10 PM 83.3°F28.5°C 64.9°F18.3°C 54% 6.2 mph SW10.0 kmh SW 12.0 mph19.3 kmh 29.87 in1011.5 mb 0.00 in0.0 mm 0.00 in0.0 mm 0.00 in0.0 mm
01:05 PM 83.8°F28.8°C 66.7°F19.3°C 56% 7.0 mph SW11.3 kmh SW 11.0 mph17.7 kmh 29.87 in1011.5 mb 0.00 in0.0 mm 0.00 in0.0 mm 0.00 in0.0 mm
01:00 PM 83.8°F28.8°C 69.2°F20.7°C 61% 4.6 mph SSW7.4 kmh SSW 10.0 mph16.1 kmh 29.87 in1011.5 mb 0.00 in0.0 mm 0.00 in0.0 mm 0.00 in0.0 mm
12:55 PM 84.4°F29.1°C 67.7°F19.8°C 57% 4.8 mph SW7.7 kmh SW 9.0 mph14.5 kmh 29.88 in1011.9 mb 0.00 in0.0 mm 0.00 in0.0 mm 0.00 in0.0 mm
12:50 PM 83.9°F28.8°C 66.2°F19.0°C 55% 3.4 mph SSW5.5 kmh SSW 12.0 mph19.3 kmh 29.88 in1011.9 mb 0.00 in0.0 mm 0.00 in0.0 mm 0.00 in0.0 mm
12:45 PM 83.4°F28.6°C 65.2°F18.4°C 54% 2.4 mph SSW3.9 kmh SSW 12.0 mph19.3 kmh 29.88 in1011.9 mb 0.00 in0.0 mm 0.00 in0.0 mm 0.00 in0.0 mm
12:40 PM 82.9°F28.3°C 63.6°F17.6°C 52% 2.4 mph SW3.9 kmh SW 12.0 mph19.3 kmh 29.88 in1011.9 mb 0.00 in0.0 mm 0.00 in0.0 mm 0.00 in0.0 mm
12:35 PM 83.1°F28.4°C 68.3°F20.2°C 61% 5.8 mph SW9.3 kmh SW 12.0 mph19.3 kmh 29.88 in1011.9 mb 0.00 in0.0 mm 0.00 in0.0 mm 0.00 in0.0 mm
12:30 PM 84.5°F29.2°C 70.0°F21.1°C 62% 6.5 mph SSW10.5 kmh SSW 12.0 mph19.3 kmh 29.89 in1012.2 mb 0.00 in0.0 mm 0.00 in0.0 mm 0.00 in0.0 mm
12:25 PM 86.5°F30.3°C 69.5°F20.8°C 57% 4.9 mph SW7.9 kmh SW 10.0 mph16.1 kmh 29.88 in1011.9 mb 0.00 in0.0 mm 0.00 in0.0 mm 0.00 in0.0 mm
12:20 PM 85.9°F29.9°C 61.5°F16.4°C 44% 3.0 mph S4.8 kmh S 8.0 mph12.9 kmh 29.88 in1011.9 mb 0.00 in0.0 mm 0.00 in0.0 mm 0.00 in0.0 mm
12:15 PM 85.6°F29.8°C 63.2°F17.3°C 47% 4.1 mph SSE6.6 kmh SSE 8.0 mph12.9 kmh 29.88 in1011.9 mb 0.00 in0.0 mm 0.00 in0.0 mm 0.00 in0.0 mm
12:10 PM 85.3°F29.6°C 63.5°F17.5°C 48% 3.2 mph SE5.1 kmh SE 7.0 mph11.3 kmh 29.88 in1011.9 mb 0.00 in0.0 mm 0.00 in0.0 mm 0.00 in0.0 mm
12:05 PM 85.2°F29.6°C 64.6°F18.1°C 50% 4.2 mph SSE6.8 kmh SSE 9.0 mph14.5 kmh 29.88 in1011.9 mb 0.00 in0.0 mm 0.00 in0.0 mm 0.00 in0.0 mm
12:00 PM 84.9°F29.4°C 59.9°F15.5°C 43% 2.7 mph S4.3 kmh S 9.0 mph14.5 kmh 29.88 in1011.9 mb 0.00 in0.0 mm 0.00 in0.0 mm 0.00 in0.0 mm
11:55 AM 84.6°F29.2°C 63.3°F17.4°C 49% 2.3 mph S3.7 kmh S 9.0 mph14.5 kmh 29.89 in1012.2 mb 0.00 in0.0 mm 0.00 in0.0 mm 0.00 in0.0 mm
11:50 AM 84.2°F29.0°C 65.4°F18.6°C 53% 2.8 mph S4.5 kmh S 9.0 mph14.5 kmh 29.89 in1012.2 mb 0.00 in0.0 mm 0.00 in0.0 mm 0.00 in0.0 mm
11:44 AM 84.4°F29.1°C 66.1°F18.9°C 54% 4.1 mph SSE6.6 kmh SSE 7.0 mph11.3 kmh 29.89 in1012.2 mb 0.00 in0.0 mm 0.00 in0.0 mm 0.00 in0.0 mm
11:40 AM 84.2°F29.0°C 65.4°F18.6°C 53% 3.0 mph SSW4.8 kmh SSW 8.0 mph12.9 kmh 29.89 in1012.2 mb 0.00 in0.0 mm 0.00 in0.0 mm 0.00 in0.0 mm
11:34 AM 83.8°F28.8°C 63.3°F17.4°C 50% 3.7 mph SE6.0 kmh SE 8.0 mph12.9 kmh 29.90 in1012.5 mb 0.00 in0.0 mm 0.00 in0.0 mm 0.00 in0.0 mm
11:29 AM 83.8°F28.8°C 67.2°F19.6°C 57% 3.3 mph SSE5.3 kmh SSE 8.0 mph12.9 kmh 29.89 in1012.2 mb 0.00 in0.0 mm 0.00 in0.0 mm 0.00 in0.0 mm
11:24 AM 83.9°F28.8°C 66.2°F19.0°C 55% 3.7 mph SE6.0 kmh SE 8.0 mph12.9 kmh 29.89 in1012.2 mb 0.00 in0.0 mm 0.00 in0.0 mm 0.00 in0.0 mm
11:19 AM 83.4°F28.6°C 64.7°F18.2°C 53% 2.1 mph SSW3.4 kmh SSW 8.0 mph12.9 kmh 29.90 in1012.5 mb 0.00 in0.0 mm 0.00 in0.0 mm 0.00 in0.0 mm
11:14 AM 83.0°F28.3°C 64.8°F18.2°C 54% 2.5 mph SSE4.0 kmh SSE 8.0 mph12.9 kmh 29.90 in1012.5 mb 0.00 in0.0 mm 0.00 in0.0 mm 0.00 in0.0 mm
11:09 AM 82.7°F28.2°C 66.7°F19.3°C 58% 2.5 mph S4.0 kmh S 8.0 mph12.9 kmh 29.90 in1012.5 mb 0.00 in0.0 mm 0.00 in0.0 mm 0.00 in0.0 mm
11:04 AM 83.2°F28.4°C 66.4°F19.1°C 57% 3.7 mph S6.0 kmh S 8.0 mph12.9 kmh 29.90 in1012.5 mb 0.00 in0.0 mm 0.00 in0.0 mm 0.00 in0.0 mm
10:59 AM 83.0°F28.3°C 67.4°F19.7°C 59% 2.8 mph SE4.5 kmh SE 8.0 mph12.9 kmh 29.90 in1012.5 mb 0.00 in0.0 mm 0.00 in0.0 mm 0.00 in0.0 mm
10:54 AM 83.1°F28.4°C 68.5°F20.3°C 61% 3.8 mph SSE6.1 kmh SSE 8.0 mph12.9 kmh 29.90 in1012.5 mb 0.00 in0.0 mm 0.00 in0.0 mm 0.00 in0.0 mm
10:49 AM 83.1°F28.4°C 67.5°F19.7°C 59% 3.4 mph SE5.5 kmh SE 8.0 mph12.9 kmh 29.90 in1012.5 mb 0.00 in0.0 mm 0.00 in0.0 mm 0.00 in0.0 mm
10:44 AM 83.4°F28.6°C 67.3°F19.6°C 58% 3.0 mph SE4.8 kmh SE 6.0 mph9.7 kmh 29.90 in1012.5 mb 0.00 in0.0 mm 0.00 in0.0 mm 0.00 in0.0 mm
10:39 AM 83.3°F28.5°C 66.7°F19.3°C 57% 2.0 mph SSE3.2 kmh SSE 6.0 mph9.7 kmh 29.90 in1012.5 mb 0.00 in0.0 mm 0.00 in0.0 mm 0.00 in0.0 mm
10:34 AM 83.2°F28.4°C 66.6°F19.2°C 57% 1.9 mph S3.1 kmh S 6.0 mph9.7 kmh 29.90 in1012.5 mb 0.00 in0.0 mm 0.00 in0.0 mm 0.00 in0.0 mm
10:29 AM 83.3°F28.5°C 65.7°F18.7°C 55% 2.2 mph SSE3.5 kmh SSE 6.0 mph9.7 kmh 29.90 in1012.5 mb 0.00 in0.0 mm 0.00 in0.0 mm 0.00 in0.0 mm
10:24 AM 83.3°F28.5°C 63.4°F17.4°C 51% 2.3 mph SE3.7 kmh SE 5.0 mph8.0 kmh 29.90 in1012.5 mb 0.00 in0.0 mm 0.00 in0.0 mm 0.00 in0.0 mm
10:19 AM 83.3°F28.5°C 63.4°F17.4°C 51% 2.3 mph SE3.7 kmh SE 5.0 mph8.0 kmh 29.90 in1012.5 mb 0.00 in0.0 mm 0.00 in0.0 mm 0.00 in0.0 mm
10:14 AM 83.3°F28.5°C 61.7°F16.5°C 48% 2.2 mph S3.5 kmh S 5.0 mph8.0 kmh 29.90 in1012.5 mb 0.00 in0.0 mm 0.00 in0.0 mm 0.00 in0.0 mm
10:09 AM 83.0°F28.3°C 61.4°F16.3°C 48% 1.3 mph SSE2.1 kmh SSE 5.0 mph8.0 kmh 29.90 in1012.5 mb 0.00 in0.0 mm 0.00 in0.0 mm 0.00 in0.0 mm
10:04 AM 82.4°F28.0°C 58.3°F14.6°C 44% 2.0 mph ESE3.2 kmh ESE 5.0 mph8.0 kmh 29.90 in1012.5 mb 0.00 in0.0 mm 0.00 in0.0 mm 0.00 in0.0 mm
09:59 AM 81.9°F27.7°C 60.3°F15.7°C 48% 2.5 mph ESE4.0 kmh ESE 5.0 mph8.0 kmh 29.90 in1012.5 mb 0.00 in0.0 mm 0.00 in0.0 mm 0.00 in0.0 mm
09:54 AM 81.6°F27.6°C 62.3°F16.8°C 52% 2.3 mph SSE3.7 kmh SSE 6.0 mph9.7 kmh 29.91 in1012.9 mb 0.00 in0.0 mm 0.00 in0.0 mm 0.00 in0.0 mm
09:49 AM 81.4°F27.4°C 63.3°F17.4°C 54% 2.4 mph SSW3.9 kmh SSW 6.0 mph9.7 kmh 29.91 in1012.9 mb 0.00 in0.0 mm 0.00 in0.0 mm 0.00 in0.0 mm
09:44 AM 81.1°F27.3°C 63.1°F17.3°C 54% 2.9 mph SSE4.7 kmh SSE 6.0 mph9.7 kmh 29.91 in1012.9 mb 0.00 in0.0 mm 0.00 in0.0 mm 0.00 in0.0 mm
09:39 AM 81.2°F27.3°C 63.2°F17.3°C 54% 2.5 mph SSE4.0 kmh SSE 6.0 mph9.7 kmh 29.90 in1012.5 mb 0.00 in0.0 mm 0.00 in0.0 mm 0.00 in0.0 mm
09:34 AM 81.0°F27.2°C 63.5°F17.5°C 55% 1.8 mph SE2.9 kmh SE 5.0 mph8.0 kmh 29.90 in1012.5 mb 0.00 in0.0 mm 0.00 in0.0 mm 0.00 in0.0 mm
09:29 AM 80.8°F27.1°C 63.3°F17.4°C 55% 2.1 mph SE3.4 kmh SE 5.0 mph8.0 kmh 29.90 in1012.5 mb 0.00 in0.0 mm 0.00 in0.0 mm 0.00 in0.0 mm
09:24 AM 80.2°F26.8°C 62.8°F17.1°C 55% 2.3 mph SE3.7 kmh SE 5.0 mph8.0 kmh 29.90 in1012.5 mb 0.00 in0.0 mm 0.00 in0.0 mm 0.00 in0.0 mm
09:19 AM 79.8°F26.6°C 61.9°F16.6°C 54% 2.9 mph E4.7 kmh E 5.0 mph8.0 kmh 29.90 in1012.5 mb 0.00 in0.0 mm 0.00 in0.0 mm 0.00 in0.0 mm
09:14 AM 79.4°F26.3°C 62.0°F16.7°C 55% 1.2 mph ESE1.9 kmh ESE 5.0 mph8.0 kmh 29.90 in1012.5 mb 0.00 in0.0 mm 0.00 in0.0 mm 0.00 in0.0 mm
09:09 AM 78.9°F26.1°C 61.5°F16.4°C 55% 1.7 mph ESE2.7 kmh ESE 5.0 mph8.0 kmh 29.90 in1012.5 mb 0.00 in0.0 mm 0.00 in0.0 mm 0.00 in0.0 mm
09:04 AM 78.6°F25.9°C 61.3°F16.3°C 55% 2.9 mph ESE4.7 kmh ESE 5.0 mph8.0 kmh 29.90 in1012.5 mb 0.00 in0.0 mm 0.00 in0.0 mm 0.00 in0.0 mm
08:59 AM 78.1°F25.6°C 61.3°F16.3°C 56% 2.2 mph SE3.5 kmh SE 5.0 mph8.0 kmh 29.90 in1012.5 mb 0.00 in0.0 mm 0.00 in0.0 mm 0.00 in0.0 mm
08:54 AM 77.9°F25.5°C 61.1°F16.2°C 56% 3.2 mph SE5.1 kmh SE 5.0 mph8.0 kmh 29.90 in1012.5 mb 0.00 in0.0 mm 0.00 in0.0 mm 0.00 in0.0 mm
08:49 AM 77.6°F25.3°C 61.4°F16.3°C 57% 2.6 mph SE4.2 kmh SE 5.0 mph8.0 kmh 29.90 in1012.5 mb 0.00 in0.0 mm 0.00 in0.0 mm 0.00 in0.0 mm
08:44 AM 77.2°F25.1°C 61.0°F16.1°C 57% 2.9 mph SE4.7 kmh SE 5.0 mph8.0 kmh 29.89 in1012.2 mb 0.00 in0.0 mm 0.00 in0.0 mm 0.00 in0.0 mm
08:39 AM 76.9°F24.9°C 61.7°F16.5°C 59% 3.1 mph SE5.0 kmh SE 5.0 mph8.0 kmh 29.89 in1012.2 mb 0.00 in0.0 mm 0.00 in0.0 mm 0.00 in0.0 mm
08:34 AM 76.5°F24.7°C 61.8°F16.6°C 60% 2.9 mph SE4.7 kmh SE 5.0 mph8.0 kmh 29.89 in1012.2 mb 0.00 in0.0 mm 0.00 in0.0 mm 0.00 in0.0 mm
08:29 AM 76.2°F24.6°C 62.0°F16.7°C 61% 2.6 mph ESE4.2 kmh ESE 5.0 mph8.0 kmh 29.89 in1012.2 mb 0.00 in0.0 mm 0.00 in0.0 mm 0.00 in0.0 mm
08:24 AM 75.9°F24.4°C 62.2°F16.8°C 62% 2.5 mph ESE4.0 kmh ESE 5.0 mph8.0 kmh 29.89 in1012.2 mb 0.00 in0.0 mm 0.00 in0.0 mm 0.00 in0.0 mm
08:19 AM 75.7°F24.3°C 61.8°F16.6°C 62% 3.7 mph ESE6.0 kmh ESE 5.0 mph8.0 kmh 29.89 in1012.2 mb 0.00 in0.0 mm 0.00 in0.0 mm 0.00 in0.0 mm
08:14 AM 75.5°F24.2°C 60.6°F15.9°C 60% 3.7 mph ESE6.0 kmh ESE 5.0 mph8.0 kmh 29.89 in1012.2 mb 0.00 in0.0 mm 0.00 in0.0 mm 0.00 in0.0 mm
08:09 AM 75.1°F23.9°C 60.5°F15.8°C 60% 2.9 mph SE4.7 kmh SE 5.0 mph8.0 kmh 29.89 in1012.2 mb 0.00 in0.0 mm 0.00 in0.0 mm 0.00 in0.0 mm
08:04 AM 75.1°F23.9°C 59.5°F15.3°C 58% 3.7 mph ESE6.0 kmh ESE 5.0 mph8.0 kmh 29.89 in1012.2 mb 0.00 in0.0 mm 0.00 in0.0 mm 0.00 in0.0 mm
07:59 AM 75.0°F23.9°C 59.2°F15.1°C 58% 2.3 mph SE3.7 kmh SE 4.0 mph6.4 kmh 29.89 in1012.2 mb 0.00 in0.0 mm 0.00 in0.0 mm 0.00 in0.0 mm
07:54 AM 74.9°F23.8°C 58.6°F14.8°C 57% 1.7 mph ESE2.7 kmh ESE 4.0 mph6.4 kmh 29.89 in1012.2 mb 0.00 in0.0 mm 0.00 in0.0 mm 0.00 in0.0 mm
07:49 AM 74.7°F23.7°C 58.5°F14.7°C 57% 2.0 mph ESE3.2 kmh ESE 4.0 mph6.4 kmh 29.89 in1012.2 mb 0.00 in0.0 mm 0.00 in0.0 mm 0.00 in0.0 mm
07:44 AM 74.4°F23.6°C 58.4°F14.7°C 57% 1.9 mph ESE3.1 kmh ESE 4.0 mph6.4 kmh 29.89 in1012.2 mb 0.00 in0.0 mm 0.00 in0.0 mm 0.00 in0.0 mm
07:39 AM 73.8°F23.2°C 59.2°F15.1°C 60% Calm Calm 3.0 mph4.8 kmh 29.89 in1012.2 mb 0.00 in0.0 mm 0.00 in0.0 mm 0.00 in0.0 mm
07:34 AM 73.5°F23.1°C 59.7°F15.4°C 62% 1.6 mph N2.6 kmh N 3.0 mph4.8 kmh 29.89 in1012.2 mb 0.00 in0.0 mm 0.00 in0.0 mm 0.00 in0.0 mm
07:29 AM 73.0°F22.8°C 59.4°F15.2°C 62% 1.2 mph N1.9 kmh N 3.0 mph4.8 kmh 29.89 in1012.2 mb 0.00 in0.0 mm 0.00 in0.0 mm 0.00 in0.0 mm
07:24 AM 72.3°F22.4°C 58.7°F14.8°C 62% 1.2 mph N1.9 kmh N 3.0 mph4.8 kmh 29.88 in1011.9 mb 0.00 in0.0 mm 0.00 in0.0 mm 0.00 in0.0 mm
07:19 AM 71.8°F22.1°C 57.6°F14.2°C 61% 1.0 mph N1.6 kmh N 3.0 mph4.8 kmh 29.88 in1011.9 mb 0.00 in0.0 mm 0.00 in0.0 mm 0.00 in0.0 mm
07:14 AM 71.6°F22.0°C 57.6°F14.2°C 61% 1.4 mph N2.3 kmh N 3.0 mph4.8 kmh 29.88 in1011.9 mb 0.00 in0.0 mm 0.00 in0.0 mm 0.00 in0.0 mm
07:09 AM 71.3°F21.8°C 57.8°F14.3°C 62% 1.7 mph N2.7 kmh N 3.0 mph4.8 kmh 29.88 in1011.9 mb 0.00 in0.0 mm 0.00 in0.0 mm 0.00 in0.0 mm
07:04 AM 70.9°F21.6°C 57.2°F14.0°C 62% 1.0 mph N1.6 kmh N 2.0 mph3.2 kmh 29.88 in1011.9 mb 0.00 in0.0 mm 0.00 in0.0 mm 0.00 in0.0 mm
06:59 AM 70.5°F21.4°C 57.0°F13.9°C 62% 1.0 mph N1.6 kmh N 2.0 mph3.2 kmh 29.88 in1011.9 mb 0.00 in0.0 mm 0.00 in0.0 mm 0.00 in0.0 mm
06:54 AM 70.1°F21.2°C 56.0°F13.3°C 61% 1.0 mph N1.6 kmh N 2.0 mph3.2 kmh 29.88 in1011.9 mb 0.00 in0.0 mm 0.00 in0.0 mm 0.00 in0.0 mm
06:49 AM 69.9°F21.1°C 55.8°F13.2°C 61% 1.0 mph N1.6 kmh N 2.0 mph3.2 kmh 29.87 in1011.5 mb 0.00 in0.0 mm 0.00 in0.0 mm 0.00 in0.0 mm
06:44 AM 69.8°F21.0°C 55.5°F13.1°C 60% 1.3 mph N2.1 kmh N 2.0 mph3.2 kmh 29.87 in1011.5 mb 0.00 in0.0 mm 0.00 in0.0 mm 0.00 in0.0 mm
06:39 AM 69.6°F20.9°C 54.6°F12.6°C 59% 1.1 mph N1.8 kmh N 3.0 mph4.8 kmh 29.87 in1011.5 mb 0.00 in0.0 mm 0.00 in0.0 mm 0.00 in0.0 mm
06:34 AM 69.6°F20.9°C 54.8°F12.7°C 59% 1.1 mph N1.8 kmh N 3.0 mph4.8 kmh 29.87 in1011.5 mb 0.00 in0.0 mm 0.00 in0.0 mm 0.00 in0.0 mm
06:29 AM 69.6°F20.9°C 54.8°F12.7°C 59% 1.3 mph N2.1 kmh N 3.0 mph4.8 kmh 29.87 in1011.5 mb 0.00 in0.0 mm 0.00 in0.0 mm 0.00 in0.0 mm
06:24 AM 69.6°F20.9°C 54.8°F12.7°C 59% 1.8 mph N2.9 kmh N 3.0 mph4.8 kmh 29.87 in1011.5 mb 0.00 in0.0 mm 0.00 in0.0 mm 0.00 in0.0 mm
06:19 AM 69.6°F20.9°C 54.8°F12.7°C 59% 1.1 mph N1.8 kmh N 3.0 mph4.8 kmh 29.87 in1011.5 mb 0.00 in0.0 mm 0.00 in0.0 mm 0.00 in0.0 mm
06:14 AM 69.7°F20.9°C 54.9°F12.7°C 59% 1.6 mph N2.6 kmh N 3.0 mph4.8 kmh 29.87 in1011.5 mb 0.00 in0.0 mm 0.00 in0.0 mm 0.00 in0.0 mm
06:09 AM 69.8°F21.0°C 55.0°F12.8°C 59% Calm Calm 3.0 mph4.8 kmh 29.87 in1011.5 mb 0.00 in0.0 mm 0.00 in0.0 mm 0.00 in0.0 mm
06:04 AM 69.9°F21.1°C 54.9°F12.7°C 59% 1.5 mph N2.4 kmh N 3.0 mph4.8 kmh 29.86 in1011.2 mb 0.00 in0.0 mm 0.00 in0.0 mm 0.00 in0.0 mm
05:59 AM 70.0°F21.1°C 55.2°F12.9°C 59% 1.3 mph N2.1 kmh N 3.0 mph4.8 kmh 29.86 in1011.2 mb 0.00 in0.0 mm 0.00 in0.0 mm 0.00 in0.0 mm
05:54 AM 70.2°F21.2°C 55.4°F13.0°C 59% 1.6 mph N2.6 kmh N 3.0 mph4.8 kmh 29.85 in1010.8 mb 0.00 in0.0 mm 0.00 in0.0 mm 0.00 in0.0 mm
05:49 AM 70.4°F21.3°C 56.0°F13.3°C 60% 1.0 mph N1.6 kmh N 3.0 mph4.8 kmh 29.85 in1010.8 mb 0.00 in0.0 mm 0.00 in0.0 mm 0.00 in0.0 mm
05:44 AM 70.5°F21.4°C 56.1°F13.4°C 60% 1.7 mph N2.7 kmh N 3.0 mph4.8 kmh 29.85 in1010.8 mb 0.00 in0.0 mm 0.00 in0.0 mm 0.00 in0.0 mm
05:39 AM 70.7°F21.5°C 56.3°F13.5°C 60% 2.0 mph N3.2 kmh N 3.0 mph4.8 kmh 29.85 in1010.8 mb 0.00 in0.0 mm 0.00 in0.0 mm 0.00 in0.0 mm
05:33 AM 70.9°F21.6°C 57.9°F14.4°C 63% 1.5 mph N2.4 kmh N 2.0 mph3.2 kmh 29.85 in1010.8 mb 0.00 in0.0 mm 0.00 in0.0 mm 0.00 in0.0 mm
05:29 AM 70.9°F21.6°C 57.9°F14.4°C 63% 1.0 mph N1.6 kmh N 2.0 mph3.2 kmh 29.85 in1010.8 mb 0.00 in0.0 mm 0.00 in0.0 mm 0.00 in0.0 mm
05:24 AM 71.1°F21.7°C 58.7°F14.8°C 65% 1.0 mph N1.6 kmh N 2.0 mph3.2 kmh 29.85 in1010.8 mb 0.00 in0.0 mm 0.00 in0.0 mm 0.00 in0.0 mm
05:19 AM 71.1°F21.7°C 58.9°F14.9°C 65% 1.0 mph N1.6 kmh N 2.0 mph3.2 kmh 29.85 in1010.8 mb 0.00 in0.0 mm 0.00 in0.0 mm 0.00 in0.0 mm
05:14 AM 71.0°F21.7°C 58.8°F14.9°C 65% 1.0 mph N1.6 kmh N 2.0 mph3.2 kmh 29.85 in1010.8 mb 0.00 in0.0 mm 0.00 in0.0 mm 0.00 in0.0 mm
05:09 AM 70.9°F21.6°C 59.0°F15.0°C 66% 1.2 mph N1.9 kmh N 2.0 mph3.2 kmh 29.85 in1010.8 mb 0.00 in0.0 mm 0.00 in0.0 mm 0.00 in0.0 mm
05:04 AM 71.0°F21.7°C 60.5°F15.8°C 69% Calm Calm 1.0 mph1.6 kmh 29.85 in1010.8 mb 0.00 in0.0 mm 0.00 in0.0 mm 0.00 in0.0 mm
04:58 AM 71.0°F21.7°C 60.1°F15.6°C 68% Calm Calm 2.0 mph3.2 kmh 29.85 in1010.8 mb 0.00 in0.0 mm 0.00 in0.0 mm 0.00 in0.0 mm
04:53 AM 71.0°F21.7°C 58.4°F14.7°C 64% 1.0 mph N1.6 kmh N 2.0 mph3.2 kmh 29.84 in1010.5 mb 0.00 in0.0 mm 0.00 in0.0 mm 0.00 in0.0 mm
04:48 AM 71.1°F21.7°C 56.7°F13.7°C 60% Calm Calm 2.0 mph3.2 kmh 29.84 in1010.5 mb 0.00 in0.0 mm 0.00 in0.0 mm 0.00 in0.0 mm
04:43 AM 71.2°F21.8°C 56.3°F13.5°C 59% 1.0 mph N1.6 kmh N 2.0 mph3.2 kmh 29.84 in1010.5 mb 0.00 in0.0 mm 0.00 in0.0 mm 0.00 in0.0 mm
04:38 AM 71.4°F21.9°C 57.0°F13.9°C 60% 1.4 mph N2.3 kmh N 2.0 mph3.2 kmh 29.85 in1010.8 mb 0.00 in0.0 mm 0.00 in0.0 mm 0.00 in0.0 mm
04:33 AM 71.4°F21.9°C 57.0°F13.9°C 60% 1.0 mph N1.6 kmh N 2.0 mph3.2 kmh 29.84 in1010.5 mb 0.00 in0.0 mm 0.00 in0.0 mm 0.00 in0.0 mm
04:28 AM 71.4°F21.9°C 56.3°F13.5°C 59% 1.0 mph N1.6 kmh N 2.0 mph3.2 kmh 29.85 in1010.8 mb 0.00 in0.0 mm 0.00 in0.0 mm 0.00 in0.0 mm
04:23 AM 71.5°F21.9°C 56.6°F13.7°C 59% 1.0 mph N1.6 kmh N 2.0 mph3.2 kmh 29.84 in1010.5 mb 0.00 in0.0 mm 0.00 in0.0 mm 0.00 in0.0 mm
04:18 AM 71.4°F21.9°C 56.3°F13.5°C 59% Calm Calm 2.0 mph3.2 kmh 29.85 in1010.8 mb 0.00 in0.0 mm 0.00 in0.0 mm 0.00 in0.0 mm
04:13 AM 71.4°F21.9°C 56.3°F13.5°C 59% Calm Calm 3.0 mph4.8 kmh 29.85 in1010.8 mb 0.00 in0.0 mm 0.00 in0.0 mm 0.00 in0.0 mm
04:08 AM 71.5°F21.9°C 56.1°F13.4°C 58% Calm Calm 3.0 mph4.8 kmh 29.85 in1010.8 mb 0.00 in0.0 mm 0.00 in0.0 mm 0.00 in0.0 mm
04:03 AM 71.6°F22.0°C 56.2°F13.4°C 58% 1.0 mph N1.6 kmh N 3.0 mph4.8 kmh 29.85 in1010.8 mb 0.00 in0.0 mm 0.00 in0.0 mm 0.00 in0.0 mm
03:58 AM 71.7°F22.1°C 55.8°F13.2°C 57% 1.5 mph N2.4 kmh N 3.0 mph4.8 kmh 29.85 in1010.8 mb 0.00 in0.0 mm 0.00 in0.0 mm 0.00 in0.0 mm
03:53 AM 71.8°F22.1°C 55.9°F13.3°C 57% 2.1 mph N3.4 kmh N 3.0 mph4.8 kmh 29.85 in1010.8 mb 0.00 in0.0 mm 0.00 in0.0 mm 0.00 in0.0 mm
03:48 AM 71.6°F22.0°C 56.7°F13.7°C 59% 1.5 mph N2.4 kmh N 3.0 mph4.8 kmh 29.85 in1010.8 mb 0.00 in0.0 mm 0.00 in0.0 mm 0.00 in0.0 mm
03:43 AM 71.3°F21.8°C 56.9°F13.8°C 60% 1.3 mph N2.1 kmh N 2.0 mph3.2 kmh 29.85 in1010.8 mb 0.00 in0.0 mm 0.00 in0.0 mm 0.00 in0.0 mm
03:38 AM 71.3°F21.8°C 56.4°F13.6°C 59% Calm Calm 1.0 mph1.6 kmh 29.85 in1010.8 mb 0.00 in0.0 mm 0.00 in0.0 mm 0.00 in0.0 mm
03:33 AM 71.5°F21.9°C 56.6°F13.7°C 59% Calm Calm 1.0 mph1.6 kmh 29.85 in1010.8 mb 0.00 in0.0 mm 0.00 in0.0 mm 0.00 in0.0 mm
03:28 AM 71.7°F22.1°C 56.3°F13.5°C 58% 1.0 mph N1.6 kmh N 1.0 mph1.6 kmh 29.85 in1010.8 mb 0.00 in0.0 mm 0.00 in0.0 mm 0.00 in0.0 mm
03:23 AM 71.9°F22.2°C 56.3°F13.5°C 58% Calm Calm 1.0 mph1.6 kmh 29.85 in1010.8 mb 0.00 in0.0 mm 0.00 in0.0 mm 0.00 in0.0 mm
03:18 AM 72.0°F22.2°C 56.6°F13.7°C 58% 1.0 mph N1.6 kmh N 1.0 mph1.6 kmh 29.85 in1010.8 mb 0.00 in0.0 mm 0.00 in0.0 mm 0.00 in0.0 mm
03:13 AM 72.1°F22.3°C 56.2°F13.4°C 57% 1.0 mph N1.6 kmh N 1.0 mph1.6 kmh 29.85 in1010.8 mb 0.00 in0.0 mm 0.00 in0.0 mm 0.00 in0.0 mm
03:08 AM 72.3°F22.4°C 56.9°F13.8°C 58% 1.0 mph N1.6 kmh N 2.0 mph3.2 kmh 29.85 in1010.8 mb 0.00 in0.0 mm 0.00 in0.0 mm 0.00 in0.0 mm
03:03 AM 72.4°F22.4°C 56.5°F13.6°C 57% Calm Calm 3.0 mph4.8 kmh 29.85 in1010.8 mb 0.00 in0.0 mm 0.00 in0.0 mm 0.00 in0.0 mm
02:58 AM 72.4°F22.4°C 56.5°F13.6°C 57% Calm Calm 3.0 mph4.8 kmh 29.85 in1010.8 mb 0.00 in0.0 mm 0.00 in0.0 mm 0.00 in0.0 mm
02:53 AM 72.5°F22.5°C 56.1°F13.4°C 56% 1.0 mph N1.6 kmh N 3.0 mph4.8 kmh 29.85 in1010.8 mb 0.00 in0.0 mm 0.00 in0.0 mm 0.00 in0.0 mm
02:48 AM 72.7°F22.6°C 56.8°F13.8°C 57% 1.5 mph N2.4 kmh N 4.0 mph6.4 kmh 29.85 in1010.8 mb 0.00 in0.0 mm 0.00 in0.0 mm 0.00 in0.0 mm
02:43 AM 72.8°F22.7°C 57.3°F14.1°C 58% 1.1 mph N1.8 kmh N 4.0 mph6.4 kmh 29.85 in1010.8 mb 0.00 in0.0 mm 0.00 in0.0 mm 0.00 in0.0 mm
02:38 AM 73.0°F22.8°C 57.5°F14.2°C 58% 1.3 mph N2.1 kmh N 4.0 mph6.4 kmh 29.85 in1010.8 mb 0.00 in0.0 mm 0.00 in0.0 mm 0.00 in0.0 mm
02:33 AM 73.3°F22.9°C 57.8°F14.3°C 58% 2.4 mph N3.9 kmh N 4.0 mph6.4 kmh 29.85 in1010.8 mb 0.00 in0.0 mm 0.00 in0.0 mm 0.00 in0.0 mm
02:28 AM 73.5°F23.1°C 59.0°F15.0°C 60% Calm Calm -- 29.85 in1010.8 mb 0.00 in0.0 mm 0.00 in0.0 mm 0.00 in0.0 mm
02:23 AM 73.8°F23.2°C 59.2°F15.1°C 60% Calm Calm -- 29.85 in1010.8 mb 0.00 in0.0 mm 0.00 in0.0 mm 0.00 in0.0 mm
02:18 AM 74.0°F23.3°C 59.9°F15.5°C 61% Calm Calm -- 29.86 in1011.2 mb 0.00 in0.0 mm 0.00 in0.0 mm 0.00 in0.0 mm
02:13 AM 74.1°F23.4°C 60.0°F15.6°C 61% Calm Calm -- 29.86 in1011.2 mb 0.00 in0.0 mm 0.00 in0.0 mm 0.00 in0.0 mm
02:08 AM 74.0°F23.3°C 59.2°F15.1°C 60% Calm Calm -- 29.86 in1011.2 mb 0.00 in0.0 mm 0.00 in0.0 mm 0.00 in0.0 mm
02:03 AM 74.1°F23.4°C 60.0°F15.6°C 61% Calm Calm -- 29.86 in1011.2 mb 0.00 in0.0 mm 0.00 in0.0 mm 0.00 in0.0 mm
01:58 AM 74.1°F23.4°C 59.5°F15.3°C 60% Calm Calm -- 29.86 in1011.2 mb 0.00 in0.0 mm 0.00 in0.0 mm 0.00 in0.0 mm
01:53 AM 74.1°F23.4°C 59.5°F15.3°C 60% Calm Calm -- 29.86 in1011.2 mb 0.00 in0.0 mm 0.00 in0.0 mm 0.00 in0.0 mm
01:48 AM 74.1°F23.4°C 59.5°F15.3°C 60% Calm Calm -- 29.86 in1011.2 mb 0.00 in0.0 mm 0.00 in0.0 mm 0.00 in0.0 mm
01:43 AM 74.2°F23.4°C 60.1°F15.6°C 61% Calm Calm -- 29.87 in1011.5 mb 0.00 in0.0 mm 0.00 in0.0 mm 0.00 in0.0 mm
01:38 AM 74.3°F23.5°C 59.5°F15.3°C 60% Calm Calm -- 29.87 in1011.5 mb 0.00 in0.0 mm 0.00 in0.0 mm 0.00 in0.0 mm
01:33 AM 74.3°F23.5°C 60.0°F15.6°C 61% Calm Calm -- 29.87 in1011.5 mb 0.00 in0.0 mm 0.00 in0.0 mm 0.00 in0.0 mm
01:28 AM 74.4°F23.6°C 60.3°F15.7°C 61% Calm Calm -- 29.87 in1011.5 mb 0.00 in0.0 mm 0.00 in0.0 mm 0.00 in0.0 mm
01:23 AM 74.5°F23.6°C 60.4°F15.8°C 61% Calm Calm -- 29.87 in1011.5 mb 0.00 in0.0 mm 0.00 in0.0 mm 0.00 in0.0 mm
01:18 AM 74.6°F23.7°C 60.5°F15.8°C 61% Calm Calm -- 29.87 in1011.5 mb 0.00 in0.0 mm 0.00 in0.0 mm 0.00 in0.0 mm
01:13 AM 74.7°F23.7°C 60.6°F15.9°C 61% Calm Calm -- 29.88 in1011.9 mb 0.00 in0.0 mm 0.00 in0.0 mm 0.00 in0.0 mm
01:08 AM 74.8°F23.8°C 60.0°F15.6°C 60% Calm Calm -- 29.88 in1011.9 mb 0.00 in0.0 mm 0.00 in0.0 mm 0.00 in0.0 mm
01:03 AM 74.9°F23.8°C 60.8°F16.0°C 61% Calm Calm -- 29.88 in1011.9 mb 0.00 in0.0 mm 0.00 in0.0 mm 0.00 in0.0 mm
12:58 AM 75.0°F23.9°C 60.8°F16.0°C 61% Calm Calm -- 29.88 in1011.9 mb 0.00 in0.0 mm 0.00 in0.0 mm 0.00 in0.0 mm
12:53 AM 75.0°F23.9°C 61.3°F16.3°C 62% Calm Calm -- 29.88 in1011.9 mb 0.00 in0.0 mm 0.00 in0.0 mm 0.00 in0.0 mm
12:48 AM 75.1°F23.9°C 61.4°F16.3°C 62% Calm Calm -- 29.88 in1011.9 mb 0.00 in0.0 mm 0.00 in0.0 mm 0.00 in0.0 mm
12:43 AM 75.2°F24.0°C 61.0°F16.1°C 61% Calm Calm -- 29.88 in1011.9 mb 0.00 in0.0 mm 0.00 in0.0 mm 0.00 in0.0 mm
12:38 AM 75.4°F24.1°C 61.7°F16.5°C 62% Calm Calm -- 29.88 in1011.9 mb 0.00 in0.0 mm 0.00 in0.0 mm 0.00 in0.0 mm
12:33 AM 75.6°F24.2°C 62.3°F16.8°C 63% Calm Calm -- 29.88 in1011.9 mb 0.00 in0.0 mm 0.00 in0.0 mm 0.00 in0.0 mm
12:28 AM 75.7°F24.3°C 62.0°F16.7°C 62% Calm Calm -- 29.88 in1011.9 mb 0.00 in0.0 mm 0.00 in0.0 mm 0.00 in0.0 mm
12:23 AM 75.7°F24.3°C 61.3°F16.3°C 61% Calm Calm -- 29.88 in1011.9 mb 0.00 in0.0 mm 0.00 in0.0 mm 0.00 in0.0 mm
12:18 AM 75.7°F24.3°C 61.5°F16.4°C 61% Calm Calm 1.0 mph1.6 kmh 29.88 in1011.9 mb 0.00 in0.0 mm 0.00 in0.0 mm 0.00 in0.0 mm
12:13 AM 75.8°F24.3°C 61.8°F16.6°C 62% Calm Calm 1.0 mph1.6 kmh 29.89 in1012.2 mb 0.00 in0.0 mm 0.00 in0.0 mm 0.00 in0.0 mm
12:08 AM 75.9°F24.4°C 61.9°F16.6°C 62% Calm Calm 1.0 mph1.6 kmh 29.89 in1012.2 mb 0.00 in0.0 mm 0.00 in0.0 mm 0.00 in0.0 mm
12:03 AM 76.0°F24.4°C 62.7°F17.1°C 63% Calm Calm 4.0 mph6.4 kmh 29.89 in1012.2 mb 0.00 in0.0 mm 0.00 in0.0 mm 0.00 in0.0 mm